Terminal Aerodrome Forecast
Issued by NWS

Current Version | Previous Version | Text Only | Print | Product List | Glossary Off
Versions: 1 2 3 4 5 6 7 8 9 10 11 12 13 14 15 16 17 18 19 20 21 22 23 24 25 26

000
FTUS41 KRNK 150226 AAA
TAFLWB
TAF AMD
KLWB 150226Z 1502/1524 00000KT 2SM BR OVC025
     FM150700 00000KT 1SM BR OVC003
     FM151000 00000KT 1/4SM FG OVC001
     FM151600 32002KT 4SM -RA BR OVC007=

USA.gov is the U.S. government's official web portal to all federal, state and local government web resources and services.